createdAt,value
2022-11-17T00:02:25.249Z,98788.66
2022-11-17T00:05:40.948Z,98781.41
2022-11-17T00:08:58.107Z,98787.28
2022-11-17T00:12:27.281Z,98794.81
2022-11-17T00:15:45.878Z,98796.44
2022-11-17T00:19:13.579Z,98793.16
2022-11-17T00:22:16.781Z,98794.53
2022-11-17T00:25:19.154Z,98804.37
2022-11-17T00:28:31.997Z,98797.53
2022-11-17T00:31:58.482Z,98793.03
2022-11-17T00:35:00.973Z,98791.13
2022-11-17T00:38:20.050Z,98801.91
2022-11-17T00:41:27.602Z,98796.84
2022-11-17T00:44:41.008Z,98790.94
2022-11-17T00:47:43.736Z,98792.00
2022-11-17T00:50:46.252Z,98782.47
2022-11-17T00:53:49.877Z,98786.56
2022-11-17T00:56:58.689Z,98780.38
2022-11-17T01:00:05.056Z,98783.28
2022-11-17T01:03:10.041Z,98782.59
2022-11-17T01:06:35.291Z,98778.38
2022-11-17T01:09:43.214Z,98770.31
2022-11-17T01:12:55.581Z,98757.28
2022-11-17T01:16:02.572Z,98762.19
2022-11-17T01:19:08.796Z,98755.91
2022-11-17T01:22:11.442Z,98748.41
2022-11-17T01:25:14.931Z,98744.28
2022-11-17T01:28:17.650Z,98735.69
2022-11-17T01:31:28.675Z,98741.84
2022-11-17T01:34:31.254Z,98736.91
2022-11-17T01:37:33.832Z,98742.09
2022-11-17T01:40:37.040Z,98735.69
2022-11-17T01:43:45.365Z,98744.97
2022-11-17T01:46:55.751Z,98741.19
2022-11-17T01:50:09.131Z,98740.22
2022-11-17T01:53:15.109Z,98740.34
2022-11-17T01:56:21.662Z,98746.38
2022-11-17T01:59:36.400Z,98755.25
2022-11-17T02:02:40.028Z,98762.66
2022-11-17T02:06:01.759Z,98759.53
2022-11-17T02:09:04.896Z,98767.19
2022-11-17T02:12:13.794Z,98764.88
2022-11-17T02:15:20.996Z,98765.25
2022-11-17T02:18:24.665Z,98759.47
2022-11-17T02:21:38.755Z,98762.75
2022-11-17T02:24:58.491Z,98767.28
2022-11-17T02:28:13.093Z,98764.44
2022-11-17T02:31:25.254Z,98767.81
2022-11-17T02:34:54.867Z,98760.19
2022-11-17T02:38:21.717Z,98744.72
2022-11-17T02:41:25.607Z,98739.34
2022-11-17T02:44:39.685Z,98734.69
2022-11-17T02:47:44.096Z,98734.16
2022-11-17T02:50:48.720Z,98725.94
2022-11-17T02:53:57.141Z,98734.44
2022-11-17T02:57:02.080Z,98717.03
2022-11-17T03:00:16.933Z,98717.72
2022-11-17T03:03:39.187Z,98738.88
2022-11-17T03:07:01.179Z,98735.56
2022-11-17T03:10:19.062Z,98728.75
2022-11-17T03:13:38.631Z,98730.34
2022-11-17T03:16:50.925Z,98706.78
2022-11-17T03:20:03.658Z,98703.06
2022-11-17T03:23:12.267Z,98702.31
2022-11-17T03:26:22.006Z,98698.59
2022-11-17T03:29:27.801Z,98694.09
2022-11-17T03:32:39.248Z,98687.88
2022-11-17T03:35:49.324Z,98688.97
2022-11-17T03:39:00.809Z,98692.41
2022-11-17T03:42:16.783Z,98700.00
2022-11-17T03:45:24.995Z,98705.69
2022-11-17T03:48:37.803Z,98722.75
2022-11-17T03:51:42.759Z,98742.13
2022-11-17T03:54:46.549Z,98742.13
2022-11-17T03:57:48.997Z,98748.50
2022-11-17T04:00:54.266Z,98753.31
2022-11-17T04:03:57.775Z,98759.31
2022-11-17T04:07:01.084Z,98764.44
2022-11-17T04:10:07.367Z,98760.25
2022-11-17T04:13:28.961Z,98759.16
2022-11-17T04:16:32.431Z,98763.72
2022-11-17T04:19:42.914Z,98751.59
2022-11-17T04:22:45.929Z,98743.63
2022-11-17T04:26:08.578Z,98735.97
2022-11-17T04:29:11.855Z,98738.13
2022-11-17T04:32:14.525Z,98751.87
2022-11-17T04:35:16.880Z,98754.16
2022-11-17T04:38:21.116Z,98750.03
2022-11-17T04:41:43.980Z,98743.31
2022-11-17T04:44:46.452Z,98743.66
2022-11-17T04:47:55.270Z,98749.78
2022-11-17T04:50:57.789Z,98748.22
2022-11-17T04:54:02.490Z,98748.44
2022-11-17T04:57:05.350Z,98767.88
2022-11-17T05:00:08.862Z,98771.88
2022-11-17T05:03:11.761Z,98781.97
2022-11-17T05:06:19.547Z,98778.28
2022-11-17T05:09:22.844Z,98773.28
2022-11-17T05:12:44.571Z,98775.50
2022-11-17T05:16:08.448Z,98773.72
2022-11-17T05:19:19.736Z,98775.34
2022-11-17T05:22:46.516Z,98775.34
2022-11-17T05:25:49.875Z,98772.50
2022-11-17T05:28:52.963Z,98779.00
2022-11-17T05:31:55.747Z,98779.72
2022-11-17T05:34:59.073Z,98787.69
2022-11-17T05:38:01.622Z,98784.66
2022-11-17T05:41:06.316Z,98779.47
2022-11-17T05:44:08.825Z,98776.31
2022-11-17T05:47:11.963Z,98780.25
2022-11-17T05:50:15.535Z,98781.25
2022-11-17T05:53:19.745Z,98782.94
2022-11-17T05:56:22.928Z,98782.47
2022-11-17T05:59:35.452Z,98789.66
2022-11-17T06:02:41.202Z,98795.66
2022-11-17T06:05:44.701Z,98807.66
2022-11-17T06:08:47.308Z,98809.28
2022-11-17T06:11:50.507Z,98811.06
2022-11-17T06:14:55.151Z,98817.31
2022-11-17T06:18:02.112Z,98807.78
2022-11-17T06:21:05.052Z,98801.31
2022-11-17T06:24:08.661Z,98802.59
2022-11-17T06:27:13.600Z,98806.84
2022-11-17T06:30:17.609Z,98802.47
2022-11-17T06:33:21.016Z,98802.72
2022-11-17T06:36:25.836Z,98807.78
2022-11-17T06:39:29.550Z,98804.25
2022-11-17T06:42:55.488Z,98815.62
2022-11-17T06:45:58.058Z,98817.81
2022-11-17T06:49:01.122Z,98817.19
2022-11-17T06:52:04.551Z,98818.25
2022-11-17T06:55:11.972Z,98822.22
2022-11-17T06:58:15.763Z,98831.16
2022-11-17T07:01:19.605Z,98841.41
2022-11-17T07:04:25.614Z,98843.31
2022-11-17T07:07:28.300Z,98840.72
2022-11-17T07:10:32.830Z,98829.94
2022-11-17T07:13:37.648Z,98836.66
2022-11-17T07:16:44.313Z,98842.03
2022-11-17T07:19:48.025Z,98844.66
2022-11-17T07:22:50.815Z,98829.13
2022-11-17T07:25:54.221Z,98827.75
2022-11-17T07:28:57.750Z,98831.38
2022-11-17T07:32:00.080Z,98842.69
2022-11-17T07:35:02.570Z,98839.72
2022-11-17T07:38:07.938Z,98841.94
2022-11-17T07:41:14.268Z,98835.34
2022-11-17T07:44:16.474Z,98837.81
2022-11-17T07:47:19.233Z,98846.00
2022-11-17T07:50:24.082Z,98845.16
2022-11-17T07:53:28.295Z,98849.19
2022-11-17T07:56:31.761Z,98850.28
2022-11-17T07:59:35.674Z,98857.94
2022-11-17T08:02:39.138Z,98841.09
2022-11-17T08:05:43.776Z,98847.28
2022-11-17T08:08:48.951Z,98842.87
2022-11-17T08:11:53.861Z,98844.53
2022-11-17T08:14:58.225Z,98850.00
2022-11-17T08:18:02.405Z,98850.00
2022-11-17T08:21:15.634Z,98859.16
2022-11-17T08:24:19.094Z,98869.03
2022-11-17T08:27:22.012Z,98871.50
2022-11-17T08:30:30.990Z,98870.78
2022-11-17T08:33:36.628Z,98884.09
2022-11-17T08:36:43.903Z,98879.38
2022-11-17T08:39:47.325Z,98868.94
2022-11-17T08:43:03.393Z,98868.84
2022-11-17T08:46:11.486Z,98889.28
2022-11-17T08:49:16.453Z,98889.56
2022-11-17T08:52:23.826Z,98884.47
2022-11-17T08:55:27.975Z,98896.53
2022-11-17T08:58:31.134Z,98902.31
2022-11-17T09:01:34.935Z,98903.25
2022-11-17T09:04:37.976Z,98898.34
2022-11-17T09:07:40.578Z,98894.66
2022-11-17T09:10:45.330Z,98895.19
2022-11-17T09:13:52.084Z,98900.56
2022-11-17T09:16:54.442Z,98900.44
2022-11-17T09:19:56.659Z,98899.75
2022-11-17T09:23:03.320Z,98904.25
2022-11-17T09:26:16.385Z,98910.31
2022-11-17T09:29:19.760Z,98913.56
2022-11-17T09:36:02.172Z,98920.31
2022-11-17T09:39:14.529Z,98920.03
2022-11-17T09:42:49.875Z,98908.75
2022-11-17T09:46:15.961Z,98909.72
2022-11-17T09:49:55.096Z,98911.19
2022-11-17T09:56:50.427Z,98894.84
2022-11-17T10:07:04.249Z,98889.94
2022-11-17T10:10:41.439Z,98898.38
2022-11-17T10:13:54.565Z,98897.22
2022-11-17T10:17:48.723Z,98898.47
2022-11-17T10:28:03.894Z,98897.75
2022-11-17T10:31:22.496Z,98889.19
2022-11-17T10:34:43.401Z,98884.38
2022-11-17T10:37:53.925Z,98894.56
2022-11-17T10:41:04.125Z,98890.84
2022-11-17T10:51:39.092Z,98904.56
2022-11-17T10:54:41.520Z,98911.06
2022-11-17T10:57:47.357Z,98911.56
2022-11-17T11:01:03.141Z,98921.44
2022-11-17T11:04:51.957Z,98913.63
2022-11-17T11:08:21.458Z,98916.66
2022-11-17T11:11:46.058Z,98908.75
2022-11-17T11:14:59.187Z,98920.97
2022-11-17T11:18:15.243Z,98910.50
2022-11-17T11:21:46.199Z,98908.84
2022-11-17T11:35:38.704Z,98906.44
2022-11-17T11:39:07.008Z,98912.13
2022-11-17T11:42:12.331Z,98908.59
2022-11-17T11:45:15.678Z,98909.16
2022-11-17T11:48:22.460Z,98905.56
2022-11-17T11:51:41.062Z,98908.84
2022-11-17T11:55:04.105Z,98902.56
2022-11-17T11:58:37.550Z,98897.94
2022-11-17T12:01:42.971Z,98899.66
2022-11-17T12:04:51.624Z,98899.53
2022-11-17T12:08:07.412Z,98896.66
2022-11-17T12:11:35.034Z,98890.94
2022-11-17T12:14:38.852Z,98901.22
2022-11-17T12:18:01.488Z,98905.63
2022-11-17T12:21:06.907Z,98907.12
2022-11-17T12:24:41.667Z,98907.25
2022-11-17T12:27:44.055Z,98906.75
2022-11-17T12:30:59.318Z,98910.19
2022-11-17T12:34:15.772Z,98911.66
2022-11-17T12:37:27.358Z,98918.69
2022-11-17T12:40:55.703Z,98910.28
2022-11-17T12:44:22.669Z,98916.16
2022-11-17T12:47:39.912Z,98915.41
2022-11-17T12:51:08.389Z,98921.44
2022-11-17T12:54:15.769Z,98914.19
2022-11-17T12:57:27.885Z,98916.69
2022-11-17T13:00:35.171Z,98909.19
2022-11-17T13:03:46.211Z,98905.25
2022-11-17T13:07:06.660Z,98903.94
2022-11-17T13:10:28.389Z,98910.91
2022-11-17T13:13:30.264Z,98916.88
2022-11-17T13:16:44.101Z,98915.62
2022-11-17T13:20:10.790Z,98919.66
2022-11-17T13:23:33.577Z,98914.28
2022-11-17T13:26:41.816Z,98919.44
2022-11-17T13:30:15.130Z,98911.59
2022-11-17T13:33:39.994Z,98931.41
2022-11-17T13:37:10.910Z,98940.16
2022-11-17T13:40:26.837Z,98935.00
2022-11-17T13:43:37.319Z,98935.47
2022-11-17T13:46:53.595Z,98943.84
2022-11-17T13:50:16.343Z,98943.75
2022-11-17T13:53:47.845Z,98948.06
2022-11-17T13:56:59.004Z,98939.47
2022-11-17T14:00:12.939Z,98942.66
2022-11-17T14:03:48.865Z,98934.37
2022-11-17T14:07:08.253Z,98927.97
2022-11-17T14:10:20.180Z,98930.03
2022-11-17T14:13:24.566Z,98937.28
2022-11-17T14:16:36.754Z,98937.44
2022-11-17T14:20:06.085Z,98933.44
2022-11-17T14:23:09.003Z,98928.44
2022-11-17T14:26:30.761Z,98924.06
2022-11-17T14:29:50.742Z,98921.88
2022-11-17T14:33:14.890Z,98916.03
2022-11-17T14:36:18.229Z,98913.47
2022-11-17T14:39:25.631Z,98913.22
2022-11-17T14:42:37.197Z,98929.88
2022-11-17T14:45:58.875Z,98939.78
2022-11-17T14:49:10.024Z,98937.59
2022-11-17T14:52:13.782Z,98943.38
2022-11-17T14:55:23.013Z,98949.69
2022-11-17T14:58:29.663Z,98948.19
2022-11-17T15:01:43.353Z,98941.31
2022-11-17T15:04:51.403Z,98934.06
2022-11-17T15:08:02.581Z,98927.22
2022-11-17T15:11:15.704Z,98929.25
2022-11-17T15:14:35.220Z,98927.63
2022-11-17T15:17:38.127Z,98931.78
2022-11-17T15:20:45.367Z,98935.09
2022-11-17T15:24:13.678Z,98932.88
2022-11-17T15:27:18.793Z,98936.44
2022-11-17T15:30:24.356Z,98931.78
2022-11-17T15:33:36.750Z,98946.59
2022-11-17T15:36:44.647Z,98938.50
2022-11-17T15:40:00.849Z,98942.09
2022-11-17T15:43:19.655Z,98946.59
2022-11-17T15:46:52.896Z,98935.25
2022-11-17T15:50:02.092Z,98924.94
2022-11-17T15:53:15.969Z,98924.81
2022-11-17T15:56:32.507Z,98926.34
2022-11-17T16:03:51.305Z,98917.16
2022-11-17T16:07:06.081Z,98927.97
2022-11-17T16:10:13.491Z,98923.59
2022-11-17T16:13:15.762Z,98915.50
2022-11-17T16:16:19.761Z,98922.06
2022-11-17T16:19:25.920Z,98911.37
2022-11-17T16:22:45.515Z,98911.78
2022-11-17T16:26:05.948Z,98908.50
2022-11-17T16:29:12.956Z,98905.63
2022-11-17T16:32:20.305Z,98897.41
2022-11-17T16:35:33.744Z,98911.50
2022-11-17T16:39:00.507Z,98914.25
2022-11-17T16:45:52.268Z,98937.53
2022-11-17T16:48:55.744Z,98958.78
2022-11-17T16:52:11.572Z,98969.38
2022-11-17T16:55:13.912Z,98968.12
2022-11-17T16:58:33.809Z,98973.47
2022-11-17T17:01:36.288Z,98964.53
2022-11-17T17:04:39.688Z,98975.53
2022-11-17T17:07:43.069Z,98986.50
2022-11-17T17:10:57.028Z,98982.94
2022-11-17T17:14:00.841Z,98992.81
2022-11-17T17:17:20.965Z,98993.66
2022-11-17T17:20:41.662Z,98993.25
2022-11-17T17:23:46.467Z,98991.03
2022-11-17T17:27:03.082Z,98975.94
2022-11-17T17:30:07.706Z,98976.91
2022-11-17T17:33:10.317Z,98981.03
2022-11-17T17:43:21.984Z,98975.94
2022-11-17T17:46:33.922Z,98981.72
2022-11-17T17:49:46.949Z,98984.16
2022-11-17T17:52:55.903Z,98973.06
2022-11-17T17:56:26.290Z,98969.38
2022-11-17T17:59:36.562Z,98968.69
2022-11-17T18:02:39.393Z,98966.91
2022-11-17T18:05:45.380Z,98975.97
2022-11-17T18:08:59.275Z,98976.62
2022-11-17T18:15:40.433Z,98988.72
2022-11-17T18:19:00.200Z,98982.28
2022-11-17T18:22:08.894Z,98976.66
2022-11-17T18:25:15.181Z,98979.09
2022-11-17T18:28:27.937Z,98963.75
2022-11-17T18:31:47.834Z,98968.94
2022-11-17T18:38:21.171Z,98952.06
2022-11-17T18:41:34.889Z,98953.28
2022-11-17T18:44:38.171Z,98948.09
2022-11-17T18:48:10.999Z,98938.22
2022-11-17T18:51:19.513Z,98946.88
2022-11-17T18:54:50.058Z,98930.44
2022-11-17T18:58:24.577Z,98934.41
2022-11-17T19:01:50.996Z,98946.09
2022-11-17T19:08:54.874Z,98947.03
2022-11-17T19:11:58.454Z,98954.44
2022-11-17T19:15:00.526Z,98946.03
2022-11-17T19:21:27.123Z,98943.44
2022-11-17T19:24:59.349Z,98940.03
2022-11-17T19:28:02.176Z,98932.88
2022-11-17T19:31:31.930Z,98922.75
2022-11-17T19:34:45.248Z,98931.00
2022-11-17T19:37:47.253Z,98929.50
2022-11-17T19:40:49.629Z,98925.38
2022-11-17T19:44:01.625Z,98923.88
2022-11-17T19:47:19.866Z,98932.22
2022-11-17T19:50:35.930Z,98935.66
2022-11-17T19:53:40.781Z,98918.13
2022-11-17T19:56:43.009Z,98900.31
2022-11-17T20:00:03.655Z,98912.63
2022-11-17T20:03:08.294Z,98920.16
2022-11-17T20:06:21.008Z,98927.00
2022-11-17T20:09:48.925Z,98911.66
2022-11-17T20:12:55.270Z,98926.16
2022-11-17T20:23:01.118Z,98936.84
2022-11-17T20:26:42.396Z,98893.97
2022-11-17T20:29:51.977Z,98879.31
2022-11-17T20:33:04.064Z,98926.03
2022-11-17T20:40:02.895Z,98938.22
2022-11-17T20:43:22.233Z,98941.56
2022-11-17T20:46:25.762Z,98945.97
2022-11-17T20:49:29.413Z,98942.13
2022-11-17T20:52:44.129Z,98942.78
2022-11-17T20:55:47.005Z,98949.22
2022-11-17T20:59:06.857Z,98954.16
2022-11-17T21:02:14.996Z,98938.81
2022-11-17T21:09:14.562Z,98922.94
2022-11-17T21:12:19.348Z,98936.91
2022-11-17T21:15:32.397Z,98918.13
2022-11-17T21:18:47.122Z,98936.72
2022-11-17T21:22:11.528Z,98924.25
2022-11-17T21:25:23.334Z,98924.41
2022-11-17T21:28:33.073Z,98927.94
2022-11-17T21:31:45.210Z,98922.03
2022-11-17T21:34:49.851Z,98912.72
2022-11-17T21:38:06.671Z,98925.06
2022-11-17T21:41:22.015Z,98934.22
2022-11-17T21:44:30.936Z,98940.25
2022-11-17T22:01:01.744Z,98904.59
2022-11-17T22:04:05.997Z,98919.37
2022-11-17T22:07:22.250Z,98913.09
2022-11-17T22:10:28.080Z,98927.06
2022-11-17T22:13:30.565Z,98930.84
2022-11-17T22:16:39.435Z,98917.44
2022-11-17T22:19:42.311Z,98921.91
2022-11-17T22:23:00.379Z,98927.97
2022-11-17T22:26:20.562Z,98925.75
2022-11-17T22:29:23.326Z,98906.56
2022-11-17T22:32:34.706Z,98903.78
2022-11-17T22:36:33.659Z,98905.97
2022-11-17T22:39:49.933Z,98905.25
2022-11-17T22:43:04.572Z,98897.84
2022-11-17T22:46:16.001Z,98891.56
2022-11-17T22:49:21.814Z,98904.28
2022-11-17T23:48:44.599Z,98870.94
2022-11-17T23:51:48.283Z,98864.06
2022-11-17T23:54:50.559Z,98871.63
2022-11-17T23:57:52.824Z,98863.88
